Time;durP1;ratioP1;P1;durP2;ratioP2;P2;SDS_P1;SDS_P2;PMS_P1;PMS_P2;Temp;Humidity;BMP_temperature;BMP_pressure;BME280_temperature;BME280_humidity;BME280_pressure;Samples;Min_cycle;Max_cycle;Signal;HPM_P1;HPM_P2
2022/05/10 00:02:08;;;;;;;23.60;13.82;;;;;;;17.15;93.07;101619.13;5075305;28;20138;-75
2022/05/10 00:04:35;;;;;;;24.27;14.88;;;;;;;17.13;92.57;101612.38;5081562;28;20119;-76
2022/05/10 00:07:01;;;;;;;20.67;13.55;;;;;;;17.04;94.84;101612.09;5079901;28;20127;-77
2022/05/10 00:09:29;;;;;;;22.08;14.02;;;;;;;17.03;94.24;101613.31;5081603;28;20052;-75
2022/05/10 00:11:59;;;;;;;20.23;14.00;;;;;;;17.08;94.06;101619.22;5072322;28;20420;-76
2022/05/10 00:14:27;;;;;;;21.23;14.23;;;;;;;17.05;94.83;101619.28;5079273;28;20599;-76
2022/05/10 00:16:54;;;;;;;20.40;13.10;;;;;;;17.01;94.68;101618.53;5084341;28;20166;-76
2022/05/10 00:19:22;;;;;;;19.98;14.02;;;;;;;16.93;96.46;101619.81;5081654;28;20048;-76
2022/05/10 00:21:49;;;;;;;24.20;13.65;;;;;;;16.89;96.39;101607.91;5081891;28;20068;-76
2022/05/10 00:24:16;;;;;;;19.45;13.02;;;;;;;16.86;96.66;101617.13;5079116;28;20063;-75
2022/05/10 00:26:42;;;;;;;22.33;14.77;;;;;;;16.78;96.79;101601.66;5075075;28;20055;-74
2022/05/10 00:29:09;;;;;;;22.75;13.90;;;;;;;16.77;97.68;101597.28;5078010;28;20128;-77
2022/05/10 00:31:36;;;;;;;22.27;13.18;;;;;;;16.76;97.30;101604.06;5073231;28;20159;-76
2022/05/10 00:34:03;;;;;;;19.65;13.05;;;;;;;16.71;97.13;101591.34;5079614;28;20052;-76
2022/05/10 00:36:31;;;;;;;22.52;13.98;;;;;;;16.75;98.62;101602.50;5080101;28;20058;-76
2022/05/10 00:38:58;;;;;;;21.27;14.25;;;;;;;16.72;98.55;101600.53;5078415;28;20058;-75
2022/05/10 00:41:46;;;;;;;22.48;14.15;;;;;;;16.70;98.29;101594.56;5083440;28;20138;-75
2022/05/10 00:44:19;;;;;;;26.55;14.27;;;;;;;16.71;97.73;101596.16;5080983;28;20047;-78
2022/05/10 00:46:57;;;;;;;23.23;14.43;;;;;;;16.62;97.28;101593.06;5072830;28;20058;-74
2022/05/10 00:49:38;;;;;;;22.30;14.52;;;;;;;16.59;98.62;101591.09;5067056;28;20056;-76
2022/05/10 00:52:12;;;;;;;25.25;15.13;;;;;;;16.54;99.11;101588.78;5070633;28;20496;-75
2022/05/10 00:54:57;;;;;;;23.23;15.20;;;;;;;16.49;99.83;101594.81;5076802;28;20048;-75
2022/05/10 00:57:43;;;;;;;22.45;14.73;;;;;;;16.44;100.00;101590.47;5075620;28;20056;-75
2022/05/10 01:00:14;;;;;;;24.88;15.02;;;;;;;16.41;100.00;101587.69;5066869;28;20036;-75
2022/05/10 01:02:46;;;;;;;22.88;15.48;;;;;;;16.41;100.00;101588.50;5071688;28;20497;-76
2022/05/10 01:05:23;;;;;;;23.70;16.33;;;;;;;16.38;100.00;101591.31;5072963;28;20060;-77
2022/05/10 01:07:56;;;;;;;26.33;14.75;;;;;;;16.33;100.00;101577.81;5080525;28;20122;-76
2022/05/10 01:10:34;;;;;;;24.27;15.98;;;;;;;16.31;100.00;101583.03;5079955;28;20385;-75
2022/05/10 01:13:32;;;;;;;22.55;15.15;;;;;;;16.32;100.00;101582.59;5070001;28;20044;-75
2022/05/10 01:16:04;;;;;;;24.10;15.07;;;;;;;16.32;100.00;101576.22;5083434;28;20071;-77
2022/05/10 01:18:31;;;;;;;22.23;14.95;;;;;;;16.23;100.00;101567.56;5080535;28;20477;-75
2022/05/10 01:21:28;;;;;;;24.95;15.38;;;;;;;16.24;100.00;101574.72;5086806;28;20397;-75
2022/05/10 01:24:13;;;;;;;21.30;14.57;;;;;;;16.19;100.00;101570.38;5085461;28;20040;-75
2022/05/10 01:26:52;;;;;;;22.63;14.70;;;;;;;16.13;100.00;101563.66;5083275;28;20131;-75
2022/05/10 01:29:33;;;;;;;24.05;15.85;;;;;;;16.07;100.00;101562.53;5086151;28;20731;-76
2022/05/10 01:34:53;;;;;;;24.80;15.95;;;;;;;16.07;100.00;101561.75;5076252;28;20106;-77
2022/05/10 01:37:24;;;;;;;24.27;14.68;;;;;;;16.02;100.00;101556.59;5083129;28;20058;-75
2022/05/10 01:40:04;;;;;;;23.98;15.07;;;;;;;15.97;100.00;101554.25;5079694;28;20560;-76
2022/05/10 01:42:40;;;;;;;24.20;15.00;;;;;;;16.05;100.00;101553.78;5080302;28;20523;-76
2022/05/10 01:45:17;;;;;;;24.50;15.90;;;;;;;16.03;100.00;101550.59;5079654;28;20159;-76
2022/05/10 01:47:56;;;;;;;24.60;15.73;;;;;;;16.02;100.00;101553.78;5081237;28;20135;-78
2022/05/10 01:50:29;;;;;;;23.35;14.73;;;;;;;15.92;100.00;101549.13;5074965;28;22091;-78
2022/05/10 01:53:13;;;;;;;23.73;14.98;;;;;;;15.90;100.00;101541.19;5079146;28;20048;-75
2022/05/10 01:55:44;;;;;;;26.23;15.23;;;;;;;15.92;100.00;101551.91;5079629;28;20052;-75
2022/05/10 01:58:16;;;;;;;22.88;15.20;;;;;;;15.84;100.00;101551.19;5085364;28;20058;-74
2022/05/10 02:00:47;;;;;;;23.45;15.50;;;;;;;15.82;100.00;101550.03;5073450;28;20052;-75
2022/05/10 02:03:18;;;;;;;22.98;14.98;;;;;;;15.81;100.00;101554.00;5077769;28;20686;-73
2022/05/10 02:05:54;;;;;;;23.02;14.88;;;;;;;15.81;100.00;101551.22;5085810;28;20051;-75
2022/05/10 02:08:42;;;;;;;27.13;16.27;;;;;;;15.78;100.00;101549.25;5087943;28;20107;-75
2022/05/10 02:11:13;;;;;;;23.42;14.68;;;;;;;15.76;100.00;101546.09;5070760;28;20147;-75
2022/05/10 02:14:26;;;;;;;23.58;15.10;;;;;;;15.71;100.00;101546.53;5069251;28;20398;-75
2022/05/10 02:16:59;;;;;;;23.35;14.32;;;;;;;15.71;100.00;101547.34;5072627;28;20044;-74
2022/05/10 02:19:38;;;;;;;22.80;15.50;;;;;;;15.68;100.00;101550.13;5082122;28;20134;-74
2022/05/10 02:22:10;;;;;;;22.92;14.95;;;;;;;15.62;100.00;101546.22;5081522;28;20052;-74
2022/05/10 02:24:42;;;;;;;23.52;14.40;;;;;;;15.62;100.00;101562.97;5081414;28;20139;-75
2022/05/10 02:27:19;;;;;;;28.23;15.18;;;;;;;15.59;100.00;101561.75;5082266;28;20664;-74
2022/05/10 02:29:49;;;;;;;22.17;15.32;;;;;;;15.62;100.00;101568.53;5084030;28;20144;-75
2022/05/10 02:35:13;;;;;;;25.17;15.98;;;;;;;15.61;100.00;101564.16;5079682;28;20053;-75
2022/05/10 02:37:40;;;;;;;24.77;15.88;;;;;;;15.59;100.00;101549.84;5081463;28;20481;-75
2022/05/10 02:40:08;;;;;;;21.60;14.85;;;;;;;15.56;100.00;101539.50;5074110;28;20044;-75
2022/05/10 02:42:35;;;;;;;23.92;15.93;;;;;;;15.55;100.00;101547.06;5085395;28;20048;-74
2022/05/10 02:45:05;;;;;;;23.45;15.07;;;;;;;15.50;100.00;101545.50;5078426;28;20160;-75
2022/05/10 02:47:37;;;;;;;22.67;15.10;;;;;;;15.52;100.00;101541.53;5068725;28;20434;-75
2022/05/10 02:50:15;;;;;;;22.88;15.05;;;;;;;15.52;100.00;101530.38;5072513;28;20054;-75
2022/05/10 02:52:42;;;;;;;26.67;14.93;;;;;;;15.52;100.00;101528.34;5080712;28;20121;-74
2022/05/10 02:55:17;;;;;;;21.83;14.63;;;;;;;15.51;100.00;101526.78;5084564;28;20140;-75
2022/05/10 02:57:46;;;;;;;;;;;;;;;15.49;100.00;101529.16;5081425;28;20416;-74
2022/05/10 03:00:13;;;;;;;22.80;14.95;;;;;;;15.47;100.00;101523.22;5079053;28;19924;-75
2022/05/10 03:02:46;;;;;;;24.48;14.57;;;;;;;15.45;100.00;101520.84;5072336;28;20076;-76
2022/05/10 03:05:13;;;;;;;23.02;15.48;;;;;;;15.43;100.00;101514.88;5079191;28;20116;-76
2022/05/10 03:07:41;;;;;;;29.00;14.43;;;;;;;15.41;100.00;101510.91;5086501;28;20052;-75
2022/05/10 03:10:08;;;;;;;22.02;15.00;;;;;;;15.39;100.00;101511.34;5073742;28;20052;-75
2022/05/10 03:12:35;;;;;;;24.90;14.05;;;;;;;15.41;100.00;101508.13;5069037;28;20084;-74
2022/05/10 03:15:03;;;;;;;22.20;14.45;;;;;;;15.37;100.00;101508.19;5069395;28;20150;-74
2022/05/10 03:17:30;;;;;;;23.02;14.38;;;;;;;15.34;100.00;101516.53;5076217;28;20483;-74
2022/05/10 03:19:56;;;;;;;23.05;15.07;;;;;;;15.34;100.00;101511.75;5086035;28;20055;-75
2022/05/10 03:22:23;;;;;;;23.27;14.98;;;;;;;15.31;100.00;101512.56;5078149;28;20447;-77
2022/05/10 03:24:49;;;;;;;23.90;15.45;;;;;;;15.28;100.00;101510.59;5081325;28;20043;-74
2022/05/10 03:27:17;;;;;;;21.45;15.15;;;;;;;15.26;100.00;101510.22;5083860;28;20546;-74
2022/05/10 03:29:44;;;;;;;26.00;14.70;;;;;;;15.26;100.00;101503.84;5074293;28;20060;-75
2022/05/10 03:32:11;;;;;;;24.17;15.00;;;;;;;15.25;100.00;101505.03;5071350;28;20523;-74
2022/05/10 03:34:57;;;;;;;23.85;15.23;;;;;;;15.22;100.00;101501.09;5068071;28;20052;-76
2022/05/10 03:37:29;;;;;;;25.20;15.88;;;;;;;15.22;100.00;101503.06;5069092;28;20057;-76
2022/05/10 03:39:57;;;;;;;22.85;14.05;;;;;;;15.22;100.00;101500.28;5079661;28;20066;-75
2022/05/10 03:42:24;;;;;;;22.15;15.23;;;;;;;15.19;100.00;101501.13;5082956;28;20139;-76
2022/05/10 03:44:52;;;;;;;24.17;15.18;;;;;;;15.19;100.00;101495.56;5077289;28;20416;-74
2022/05/10 03:47:26;;;;;;;24.73;14.27;;;;;;;15.16;100.00;101491.56;5074016;28;20131;-75
2022/05/10 03:49:54;;;;;;;24.60;15.00;;;;;;;15.12;100.00;101484.47;5071126;28;20048;-75
2022/05/10 03:52:21;;;;;;;25.90;15.27;;;;;;;15.11;100.00;101489.22;5078035;28;20519;-74
2022/05/10 03:54:47;;;;;;;25.38;15.63;;;;;;;15.11;100.00;101488.44;5078766;28;20057;-75
2022/05/10 03:57:14;;;;;;;23.13;14.57;;;;;;;15.11;100.00;101486.44;5078609;28;20478;-76
2022/05/10 03:59:44;;;;;;;28.10;15.02;;;;;;;15.10;100.00;101487.66;5073647;28;20106;-74
2022/05/10 04:02:12;;;;;;;21.33;13.40;;;;;;;15.13;100.00;101489.59;5082207;28;20591;-75
2022/05/10 04:04:39;;;;;;;26.88;14.30;;;;;;;15.12;100.00;101484.47;5078196;28;20059;-74
2022/05/10 04:07:06;;;;;;;23.05;14.50;;;;;;;15.13;100.00;101486.03;5074979;28;20491;-74
2022/05/10 04:09:34;;;;;;;24.15;15.80;;;;;;;15.13;100.00;101484.00;5084212;28;20052;-74
2022/05/10 04:12:01;;;;;;;23.02;14.32;;;;;;;15.14;100.00;101487.59;5083862;28;20036;-75
2022/05/10 04:14:27;;;;;;;23.33;14.23;;;;;;;15.16;100.00;101488.78;5081961;28;20062;-74
2022/05/10 04:16:54;;;;;;;25.30;15.30;;;;;;;15.16;100.00;101486.00;5085390;28;20127;-73
2022/05/10 04:19:21;;;;;;;23.80;13.82;;;;;;;15.16;100.00;101497.13;5072597;28;20542;-75
2022/05/10 04:21:49;;;;;;;22.63;14.32;;;;;;;15.16;100.00;101491.56;5072201;28;20079;-74
2022/05/10 04:24:16;;;;;;;24.45;15.10;;;;;;;15.15;100.00;101490.00;5083547;28;20050;-74
2022/05/10 04:26:44;;;;;;;22.73;14.93;;;;;;;15.18;100.00;101494.75;5080365;28;20142;-74
2022/05/10 04:29:11;;;;;;;24.95;15.75;;;;;;;15.16;100.00;101491.56;5079160;28;20052;-76
2022/05/10 04:31:38;;;;;;;22.65;14.90;;;;;;;15.15;100.00;101484.41;5073801;28;20583;-74
2022/05/10 04:34:04;;;;;;;23.10;14.75;;;;;;;15.14;100.00;101484.81;5067921;28;20080;-75
2022/05/10 04:36:31;;;;;;;27.13;15.30;;;;;;;15.18;100.00;101491.97;5072875;28;20479;-74
2022/05/10 04:38:57;;;;;;;23.13;15.18;;;;;;;15.17;100.00;101493.16;5085580;28;20052;-76
2022/05/10 04:41:27;;;;;;;24.90;16.65;;;;;;;15.19;100.00;101484.41;5081672;28;20045;-74
2022/05/10 04:44:06;;;;;;;24.08;14.10;;;;;;;15.20;100.00;101477.63;5087191;28;20051;-75
2022/05/10 04:46:37;;;;;;;21.63;14.73;;;;;;;15.18;100.00;101489.16;5068402;28;20106;-74
2022/05/10 04:49:09;;;;;;;22.90;14.73;;;;;;;15.19;100.00;101493.53;5070524;28;20520;-73
2022/05/10 04:51:37;;;;;;;23.17;14.43;;;;;;;15.21;100.00;101491.16;5076136;28;20436;-74
2022/05/10 04:54:04;;;;;;;22.00;13.95;;;;;;;15.23;100.00;101485.94;5084840;28;20138;-75
2022/05/10 04:56:30;;;;;;;25.98;15.15;;;;;;;15.23;100.00;101479.59;5080917;28;20062;-76
2022/05/10 04:58:57;;;;;;;20.98;13.48;;;;;;;15.24;100.00;101484.75;5078393;28;20550;-74
2022/05/10 05:01:26;;;;;;;23.30;14.23;;;;;;;15.24;100.00;101483.94;5076553;28;20062;-76
2022/05/10 05:03:59;;;;;;;23.83;14.45;;;;;;;15.25;100.00;101486.31;5073976;28;20531;-75
2022/05/10 05:06:26;;;;;;;26.60;14.55;;;;;;;15.30;100.00;101491.44;5081105;28;20051;-75
2022/05/10 05:08:53;;;;;;;23.10;14.68;;;;;;;15.30;100.00;101494.25;5088243;28;20080;-75
2022/05/10 05:11:19;;;;;;;24.25;14.90;;;;;;;15.36;100.00;101492.63;5071504;28;20627;-75
2022/05/10 05:13:46;;;;;;;24.30;14.85;;;;;;;15.40;100.00;101490.59;5079539;28;20484;-75
2022/05/10 05:16:13;;;;;;;24.40;14.88;;;;;;;15.45;100.00;101501.31;5079959;28;20420;-74
2022/05/10 05:18:39;;;;;;;22.63;15.02;;;;;;;15.50;100.00;101505.69;5080087;28;20561;-73
2022/05/10 05:21:06;;;;;;;25.48;16.17;;;;;;;15.50;100.00;101497.31;5085206;28;20072;-77
2022/05/10 05:23:33;;;;;;;25.73;15.25;;;;;;;15.53;100.00;101505.63;5080323;28;20158;-75
2022/05/10 05:25:59;;;;;;;25.27;16.23;;;;;;;15.55;100.00;101498.88;5074436;28;20427;-76
2022/05/10 05:28:26;;;;;;;28.90;16.45;;;;;;;15.59;100.00;101497.59;5083171;28;20690;-75
2022/05/10 05:30:53;;;;;;;28.35;15.63;;;;;;;15.67;100.00;101506.72;5076568;28;20044;-78
2022/05/10 05:33:19;;;;;;;25.52;16.38;;;;;;;15.71;100.00;101513.03;5081619;28;20119;-75
2022/05/10 05:35:46;;;;;;;28.05;15.65;;;;;;;15.73;100.00;101505.06;5077084;28;20068;-77
2022/05/10 05:38:12;;;;;;;24.17;13.88;;;;;;;15.76;100.00;101507.81;5073885;28;20052;-76
2022/05/10 05:40:39;;;;;;;24.05;14.45;;;;;;;15.81;100.00;101501.00;5070858;28;20087;-77
2022/05/10 05:43:06;;;;;;;24.35;14.70;;;;;;;15.82;100.00;101505.38;5075128;28;20477;-75
2022/05/10 05:45:33;;;;;;;22.10;14.43;;;;;;;15.86;100.00;101506.91;5075120;28;20083;-76
2022/05/10 05:48:00;;;;;;;23.98;14.75;;;;;;;15.92;100.00;101502.47;5082150;28;20097;-76
2022/05/10 05:50:27;;;;;;;30.98;16.15;;;;;;;15.99;100.00;101501.63;5075039;28;20059;-78
2022/05/10 05:52:57;;;;;;;24.40;14.88;;;;;;;16.04;100.00;101503.94;5076193;28;20058;-76
2022/05/10 05:55:24;;;;;;;22.63;14.80;;;;;;;16.14;100.00;101505.81;5081689;28;20560;-76
2022/05/10 05:57:51;;;;;;;26.67;15.93;;;;;;;16.20;100.00;101502.16;5082449;28;20052;-77
2022/05/10 06:00:21;;;;;;;25.17;15.88;;;;;;;16.29;100.00;101498.84;5073892;28;20052;-76
2022/05/10 06:02:48;;;;;;;29.92;15.05;;;;;;;16.42;100.00;101499.88;5080974;28;20056;-77
2022/05/10 06:05:15;;;;;;;24.98;14.88;;;;;;;16.54;100.00;101507.75;5083286;28;20079;-76
2022/05/10 06:07:41;;;;;;;24.35;15.23;;;;;;;16.68;100.00;101508.38;5077748;28;20054;-78
2022/05/10 06:10:10;;;;;;;22.25;14.13;;;;;;;16.85;100.00;101498.16;5074901;28;20059;-76
2022/05/10 06:12:37;;;;;;;21.92;12.57;;;;;;;17.05;100.00;101499.03;5076895;28;20086;-76
2022/05/10 06:15:09;;;;;;;18.60;10.45;;;;;;;17.23;99.52;101496.75;5085585;28;20156;-77
2022/05/10 06:17:38;;;;;;;22.27;10.38;;;;;;;17.43;97.27;101503.25;5080710;28;20059;-77
2022/05/10 06:20:09;;;;;;;20.48;10.10;;;;;;;17.53;93.58;101502.28;5075664;28;20052;-75
2022/05/10 06:22:36;;;;;;;18.98;9.85;;;;;;;17.62;91.08;101499.75;5080364;28;20451;-78
2022/05/10 06:25:04;;;;;;;18.38;9.65;;;;;;;17.71;88.90;101495.16;5086856;28;20102;-77
2022/05/10 06:27:32;;;;;;;16.60;9.85;;;;;;;17.81;88.91;101498.97;5081754;28;20079;-77
2022/05/10 06:29:58;;;;;;;19.38;9.55;;;;;;;17.83;87.69;101497.31;5083469;28;20048;-76
2022/05/10 06:32:26;;;;;;;18.38;9.60;;;;;;;17.94;87.79;101502.72;5069066;28;20048;-76
2022/05/10 06:34:53;;;;;;;18.20;9.88;;;;;;;17.93;86.64;101496.34;5070148;28;20063;-78
2022/05/10 06:40:09;;;;;;;21.63;9.70;;;;;;;18.07;85.94;101498.09;5093234;28;20114;-74
2022/05/10 06:42:38;;;;;;;17.00;10.18;;;;;;;18.18;86.76;101492.25;5078133;28;20040;-75
2022/05/10 06:45:10;;;;;;;18.88;9.60;;;;;;;18.19;85.83;101489.03;5078698;28;20039;-77
2022/05/10 06:47:39;;;;;;;15.48;9.63;;;;;;;18.26;85.85;101490.91;5076765;28;20079;-74
2022/05/10 06:50:09;;;;;;;17.20;9.95;;;;;;;18.30;85.42;101486.81;5081399;28;20044;-73
2022/05/10 06:52:36;;;;;;;24.30;10.82;;;;;;;18.36;85.78;101479.50;5079770;28;20064;-73
2022/05/10 06:55:04;;;;;;;18.08;10.38;;;;;;;18.49;86.06;101486.03;5081731;28;20109;-75
2022/05/10 06:57:31;;;;;;;20.48;9.93;;;;;;;18.56;85.97;101479.50;5082722;28;20056;-74
2022/05/10 06:59:58;;;;;;;19.92;11.02;;;;;;;18.65;85.19;101463.66;5082113;28;20458;-73
2022/05/10 07:02:24;;;;;;;19.02;10.20;;;;;;;18.71;85.15;101470.34;5080837;28;20045;-75
2022/05/10 07:04:52;;;;;;;21.35;11.13;;;;;;;18.80;84.20;101456.50;5085377;28;20139;-74
2022/05/10 07:07:19;;;;;;;20.33;10.32;;;;;;;18.86;83.01;101462.41;5069465;28;20054;-74
2022/05/10 07:09:47;;;;;;;20.02;9.88;;;;;;;18.97;82.97;101451.72;5088823;28;20048;-75
2022/05/10 07:12:14;;;;;;;18.35;9.45;;;;;;;19.07;82.76;101459.09;5070271;28;20048;-74
2022/05/10 07:14:41;;;;;;;17.13;9.52;;;;;;;19.16;81.11;101456.44;5075148;28;20048;-73
2022/05/10 07:17:08;;;;;;;20.30;10.50;;;;;;;19.31;81.26;101447.25;5080762;28;20048;-72
2022/05/10 07:19:37;;;;;;;21.30;10.80;;;;;;;19.48;81.46;101439.63;5082265;28;20067;-74
2022/05/10 07:22:04;;;;;;;19.95;9.73;;;;;;;19.68;81.42;101443.09;5077252;28;20135;-75
2022/05/10 07:24:31;;;;;;;20.92;9.75;;;;;;;19.82;80.86;101449.13;5074293;28;20122;-77
2022/05/10 07:26:57;;;;;;;25.58;10.18;;;;;;;19.96;79.30;101445.13;5081991;28;20112;-76
2022/05/10 07:29:24;;;;;;;20.98;9.77;;;;;;;20.15;79.45;101452.66;5095913;28;20055;-74
2022/05/10 07:31:53;;;;;;;16.15;8.68;;;;;;;20.27;77.72;101449.06;5085079;28;20048;-74
2022/05/10 07:34:20;;;;;;;20.70;9.55;;;;;;;20.41;77.16;101451.47;5080499;28;20058;-74
2022/05/10 07:36:46;;;;;;;19.52;8.10;;;;;;;20.54;75.81;101443.84;5086030;28;20051;-76
2022/05/10 07:39:16;;;;;;;17.67;8.48;;;;;;;20.66;74.58;101442.28;5077899;28;20068;-74
2022/05/10 07:41:43;;;;;;;18.65;9.00;;;;;;;20.85;74.21;101439.22;5077369;28;20120;-74
2022/05/10 07:44:11;;;;;;;21.42;9.45;;;;;;;21.04;73.75;101434.63;5074523;28;20167;-76
2022/05/10 07:46:38;;;;;;;15.20;6.93;;;;;;;21.03;71.21;101427.44;5079608;28;20143;-74
2022/05/10 07:49:04;;;;;;;20.83;9.13;;;;;;;21.24;72.45;101429.56;5075274;28;20131;-74
2022/05/10 07:51:31;;;;;;;17.80;8.23;;;;;;;21.41;71.58;101428.16;5068968;28;20159;-73
2022/05/10 07:53:58;;;;;;;14.95;8.07;;;;;;;21.52;69.38;101429.38;5086132;28;20055;-75
2022/05/10 07:56:25;;;;;;;14.25;7.10;;;;;;;21.61;68.41;101429.47;5080484;28;20123;-75
2022/05/10 07:58:54;;;;;;;18.55;8.10;;;;;;;21.83;68.12;101423.84;5074692;28;20716;-74
2022/05/10 08:01:21;;;;;;;19.67;8.27;;;;;;;21.97;67.77;101418.50;5079860;28;20211;-75
2022/05/10 08:03:48;;;;;;;19.15;8.77;;;;;;;22.10;66.65;101418.44;5083403;28;20055;-75
2022/05/10 08:06:16;;;;;;;11.90;5.80;;;;;;;22.11;64.18;101417.97;5072430;28;20048;-75
2022/05/10 08:08:43;;;;;;;14.35;8.07;;;;;;;22.20;63.65;101411.59;5071082;28;20091;-75
2022/05/10 08:11:10;;;;;;;15.65;7.50;;;;;;;22.30;62.50;101411.22;5083585;28;20256;-75
2022/05/10 08:13:39;;;;;;;19.50;7.45;;;;;;;22.39;62.37;101422.56;5076596;28;20051;-74
2022/05/10 08:16:08;;;;;;;14.77;7.35;;;;;;;22.51;62.02;101409.63;5087080;28;20046;-74
2022/05/10 08:18:37;;;;;;;17.50;7.22;;;;;;;22.58;60.95;101417.81;5080948;28;20048;-75
2022/05/10 08:21:03;;;;;;;14.70;6.03;;;;;;;22.69;60.30;101409.72;5080001;28;20051;-77
2022/05/10 08:23:32;;;;;;;12.20;6.20;;;;;;;22.92;59.82;101406.34;5074152;28;20084;-72
2022/05/10 08:25:59;;;;;;;16.13;7.25;;;;;;;23.18;59.89;101410.47;5080948;28;20473;-76
2022/05/10 08:28:29;;;;;;;13.88;6.35;;;;;;;23.31;57.99;101402.69;5078647;28;20052;-74
2022/05/10 08:30:56;;;;;;;13.18;6.03;;;;;;;23.41;57.29;101404.28;5074936;28;20075;-76
2022/05/10 08:33:26;;;;;;;17.40;6.22;;;;;;;23.52;56.45;101404.59;5079922;28;20164;-74
2022/05/10 08:35:55;;;;;;;13.90;5.43;;;;;;;23.64;53.81;101409.31;5094242;28;20055;-74
2022/05/10 08:38:23;;;;;;;12.45;6.13;;;;;;;23.80;53.71;101399.75;5083272;28;20558;-76
2022/05/10 08:41:06;;;;;;;4.80;2.75;;;;;;;23.82;51.45;101400.06;5075241;28;20139;-74
2022/05/10 08:43:38;;;;;;;11.15;4.82;;;;;;;24.01;51.87;101401.63;5078220;28;20131;-74
2022/05/10 08:46:08;;;;;;;6.97;3.15;;;;;;;24.13;49.34;101398.63;5078842;28;20080;-74
2022/05/10 08:48:34;;;;;;;14.13;5.90;;;;;;;24.15;49.33;101398.94;5066427;28;20571;-74
2022/05/10 08:51:02;;;;;;;11.35;4.35;;;;;;;24.41;49.90;101388.03;5066245;28;20121;-75
2022/05/10 08:53:30;;;;;;;6.43;2.83;;;;;;;24.42;46.98;101389.59;5081057;28;20067;-74
2022/05/10 08:56:08;;;;;;;11.27;4.70;;;;;;;24.67;46.86;101381.50;5082861;28;20059;-75
2022/05/10 08:58:44;;;;;;;6.13;3.05;;;;;;;24.76;46.65;101384.31;5069790;28;20085;-74
2022/05/10 09:01:59;;;;;;;10.75;4.18;;;;;;;24.96;45.37;101376.03;5082476;28;20062;-74
2022/05/10 09:04:44;;;;;;;5.88;3.78;;;;;;;24.93;44.36;101391.13;5076557;28;20047;-74
2022/05/10 09:07:38;;;;;;;10.77;4.45;;;;;;;25.20;44.13;101376.00;5080300;28;20661;-71
2022/05/10 09:10:05;;;;;;;5.05;2.58;;;;;;;25.38;43.54;101369.47;5086075;28;20058;-73
2022/05/10 09:13:10;;;;;;;8.50;3.05;;;;;;;25.53;43.67;101370.28;5075652;28;20127;-73
2022/05/10 09:15:55;;;;;;;6.03;2.72;;;;;;;25.37;42.08;101371.50;5063394;28;20120;-72
2022/05/10 09:18:25;;;;;;;4.63;2.67;;;;;;;25.46;41.99;101367.84;5079070;28;20055;-71
2022/05/10 09:20:58;;;;;;;8.50;3.33;;;;;;;25.40;42.04;101364.88;5071823;28;20127;-70
2022/05/10 09:23:46;;;;;;;6.75;2.45;;;;;;;25.38;41.56;101366.66;5075806;28;20048;-71
2022/05/10 09:26:14;;;;;;;10.38;3.63;;;;;;;25.47;42.40;101358.84;5075792;28;20566;-74
2022/05/10 09:28:48;;;;;;;3.70;2.33;;;;;;;25.50;40.29;101362.75;5078226;28;20053;-74
2022/05/10 09:34:49;;;;;;;3.22;1.85;;;;;;;25.44;41.15;101359.06;5075152;28;20084;-74
2022/05/10 09:37:20;;;;;;;9.43;4.35;;;;;;;25.53;41.11;101350.47;5090544;28;20455;-74
2022/05/10 09:39:59;;;;;;;12.25;4.82;;;;;;;25.75;42.05;101346.00;5079872;28;20480;-73
2022/05/10 09:42:43;;;;;;;3.50;2.20;;;;;;;25.89;41.31;101348.09;5082420;28;20045;-73
2022/05/10 09:45:21;;;;;;;5.13;2.95;;;;;;;25.80;40.74;101331.16;5079718;28;20060;-73
2022/05/10 09:48:07;;;;;;;6.93;3.13;;;;;;;25.91;41.58;101339.09;5083915;28;20420;-72
2022/05/10 09:50:36;;;;;;;;;;;;;;;25.96;39.63;101338.41;5079588;28;20083;-73
2022/05/10 09:53:08;;;;;;;6.18;2.88;;;;;;;26.03;39.28;101343.72;5076204;28;20386;-73
2022/05/10 09:55:35;;;;;;;7.88;3.72;;;;;;;26.01;39.93;101346.25;5084093;28;20058;-73
2022/05/10 09:58:15;;;;;;;10.77;3.83;;;;;;;26.18;39.72;101336.75;5077526;28;20071;-73
2022/05/10 10:00:45;;;;;;;4.95;2.33;;;;;;;26.03;39.91;101352.22;5080809;28;20147;-71
2022/05/10 10:03:33;;;;;;;7.55;3.33;;;;;;;26.07;40.39;101344.28;5089298;28;20046;-72
2022/05/10 10:06:22;;;;;;;14.38;4.07;;;;;;;26.14;39.93;101341.06;5076929;28;20044;-72
2022/05/10 10:08:50;;;;;;;4.32;2.40;;;;;;;26.25;39.74;101339.19;5081619;28;20068;-73
2022/05/10 10:11:23;;;;;;;8.32;3.80;;;;;;;26.33;40.32;101328.22;5070771;28;20060;-73
2022/05/10 10:13:55;;;;;;;3.83;2.38;;;;;;;26.21;39.66;101320.81;5080542;28;20074;-73
2022/05/10 10:16:34;;;;;;;6.85;2.80;;;;;;;26.37;40.36;101343.78;5081948;28;20127;-74
2022/05/10 10:19:23;;;;;;;10.88;5.07;;;;;;;26.41;39.96;101337.91;5080857;28;20058;-76
2022/05/10 10:22:05;;;;;;;5.97;3.28;;;;;;;26.07;40.21;101330.09;5076632;28;20080;-73
2022/05/10 10:24:44;;;;;;;7.95;3.70;;;;;;;25.90;39.88;101331.84;5073667;28;20048;-71
2022/05/10 10:27:20;;;;;;;7.72;3.22;;;;;;;25.75;40.61;101339.56;5072448;28;20052;-71
2022/05/10 10:30:16;;;;;;;8.40;3.67;;;;;;;26.03;41.51;101332.38;5055290;28;20049;-72
2022/05/10 10:32:47;;;;;;;14.57;5.55;;;;;;;25.99;41.30;101323.28;5065541;28;20514;-71
2022/05/10 10:35:34;;;;;;;5.05;2.97;;;;;;;26.08;41.56;101328.84;5078053;28;20509;-71
2022/05/10 10:38:17;;;;;;;16.40;5.18;;;;;;;26.10;40.90;101315.75;5082088;28;20162;-71
2022/05/10 10:40:55;;;;;;;4.88;2.58;;;;;;;25.95;41.40;101317.00;5068329;28;20056;-71
2022/05/10 10:43:29;;;;;;;8.73;4.15;;;;;;;26.02;42.17;101320.22;5070567;28;20131;-73
2022/05/10 10:46:06;;;;;;;11.13;4.72;;;;;;;26.00;42.09;101313.50;5076613;28;20059;-72
2022/05/10 10:48:46;;;;;;;8.63;3.17;;;;;;;25.96;42.10;101310.03;5081392;28;20056;-73
2022/05/10 10:51:15;;;;;;;10.27;4.32;;;;;;;26.21;41.90;101292.44;5076277;28;20040;-73
2022/05/10 10:53:44;;;;;;;14.02;4.60;;;;;;;26.08;41.53;101297.66;5075816;28;20132;-76
2022/05/10 10:56:40;;;;;;;5.90;3.67;;;;;;;25.98;42.07;101291.28;5073034;28;20054;-73
2022/05/10 10:59:19;;;;;;;12.63;4.53;;;;;;;25.98;41.92;101282.03;5058412;28;20060;-74
2022/05/10 11:02:09;;;;;;;9.10;3.65;;;;;;;25.84;41.17;101279.91;5066505;28;21029;-73
2022/05/10 11:04:35;;;;;;;10.65;5.03;;;;;;;25.88;40.90;101281.28;5067013;28;20056;-72
2022/05/10 11:07:13;;;;;;;8.48;3.55;;;;;;;25.52;40.31;101267.53;5075221;28;20072;-71
2022/05/10 11:09:43;;;;;;;9.73;3.70;;;;;;;25.61;40.79;101261.75;5068674;28;20040;-72
2022/05/10 11:12:28;;;;;;;6.78;4.05;;;;;;;25.73;40.95;101257.06;5067562;28;20111;-74
2022/05/10 11:14:54;;;;;;;13.07;4.57;;;;;;;25.71;42.11;101276.63;5073319;28;20052;-72
2022/05/10 11:17:38;;;;;;;11.07;4.25;;;;;;;25.72;40.82;101264.78;5066544;28;20053;-73
2022/05/10 11:20:18;;;;;;;6.38;2.67;;;;;;;25.75;40.44;101282.88;5068549;28;20057;-72
2022/05/10 11:22:55;;;;;;;9.43;3.72;;;;;;;25.56;39.37;101272.97;5066388;28;20171;-73
2022/05/10 11:25:21;;;;;;;4.72;2.70;;;;;;;25.32;39.23;101287.22;5080311;28;20052;-73
2022/05/10 11:28:39;;;;;;;5.78;2.30;;;;;;;25.39;38.68;101278.34;5070934;28;20138;-72
2022/05/10 11:31:28;;;;;;;5.35;3.05;;;;;;;25.52;38.24;101276.03;5028800;28;20443;-73
2022/05/10 11:34:32;;;;;;;8.60;2.90;;;;;;;25.94;38.11;101281.38;5075116;28;20066;-71
2022/05/10 11:37:02;;;;;;;10.45;4.30;;;;;;;26.40;37.82;101283.22;5078488;28;20144;-72
2022/05/10 11:39:50;;;;;;;8.65;3.72;;;;;;;26.63;36.90;101256.75;5076951;28;20569;-71
2022/05/10 11:42:46;;;;;;;5.93;2.55;;;;;;;26.77;37.29;101246.63;5072890;28;20086;-70
2022/05/10 11:45:47;;;;;;;11.93;4.88;;;;;;;27.36;37.28;101245.81;5070337;28;20059;-73
2022/05/10 11:48:35;;;;;;;9.35;3.53;;;;;;;27.41;35.78;101258.50;5073338;28;20056;-73